aviador You're here:

SKRG Decoded Metar

RIO NEGRO in COLOMBIA
Report Time2018-07-22 16:00:00
UTC Time2018-07-22 16:33:28
Flight Rules vfr VFR
Wind120° at 06 kt
W.Decomp.*RWY 18: 3.4 kt HW 4.9 kt LCW
W.Rank120° ranks 4
Current wind is below 120° avg. (7.9)
Visibility9999 m
Phenomena:N/A
Clouds:Few 018 Hf
Scattered 080 Hf
Broken 200 Hf
Expected CloudBase > 4,000 ft AGL from Temp-Dew spread
Ceiling20,000 ft
Temp20°C (ISA +19)
Dew Point10°C (53% RH)
AAT17.9°C
QNH1026 hPa
Density Alt8,940 ft
Elevation7,020 ft
Report Wrong Elevation
Raw Report
SKRG 221600Z 12006KT 9999 FEW018 SCT080 BKN200 20/10 A3029=

Extra information for SKRG:More info

Metar Taf Metar & Taf Last 4 Metars F.Rules Stats Wind Profile Meteogram Temp Stats Airport Information Weather charts Add Link Nearby VenuesMetar ALERT Operation Metar Decoded Social comments